Time;durP1;ratioP1;P1;durP2;ratioP2;P2;SDS_P1;SDS_P2;PMS_P1;PMS_P2;Temp;Humidity;BMP_temperature;BMP_pressure;BME280_temperature;BME280_humidity;BME280_pressure;Samples;Min_cycle;Max_cycle;Signal;HPM_P1;HPM_P2
2022/08/04 00:00:41;;;;;;;;;2.00;2.00;;;;;25.73;47.92;100361.91;5055177;28;45371;-68
2022/08/04 00:03:21;;;;;;;;;2.25;2.25;;;;;25.72;47.85;100362.91;5073978;27;45361;-72
2022/08/04 00:05:58;;;;;;;;;3.00;3.00;;;;;25.72;47.87;100371.00;5075583;28;45317;-76
2022/08/04 00:08:30;;;;;;;;;3.50;3.00;;;;;25.68;47.78;100361.56;5075575;28;45301;-77
2022/08/04 00:10:59;;;;;;;;;2.50;2.50;;;;;25.65;48.45;100364.59;5080299;28;45351;-72
2022/08/04 00:13:29;;;;;;;;;3.25;3.25;;;;;25.58;48.12;100364.38;5066187;28;45001;-75
2022/08/04 00:16:03;;;;;;;;;2.75;2.75;;;;;25.60;48.16;100361.53;5078751;27;45365;-70
2022/08/04 00:18:49;;;;;;;;;2.25;2.25;;;;;25.57;48.03;100357.31;5078634;27;45318;-70
2022/08/04 00:21:17;;;;;;;;;3.00;3.00;;;;;25.57;48.49;100357.31;5078881;27;45289;-68
2022/08/04 00:23:45;;;;;;;;;2.00;2.00;;;;;25.56;48.10;100357.50;5078016;28;46263;-70
2022/08/04 00:26:10;;;;;;;;;2.00;2.00;;;;;25.53;48.37;100355.97;5078422;28;45278;-69
2022/08/04 00:28:37;;;;;;;;;2.25;2.25;;;;;25.49;48.54;100366.25;5078773;27;45215;-70
2022/08/04 00:31:09;;;;;;;;;1.50;1.50;;;;;25.44;48.68;100368.53;5079477;27;45402;-69
2022/08/04 00:33:36;;;;;;;;;1.50;1.50;;;;;25.36;48.96;100371.19;5082674;27;46601;-70
2022/08/04 00:36:02;;;;;;;;;3.25;3.25;;;;;25.35;48.96;100364.13;5081204;27;45297;-69
2022/08/04 00:38:28;;;;;;;;;5.00;3.00;;;;;25.32;48.95;100369.84;5078507;28;45374;-70
2022/08/04 00:41:08;;;;;;;;;2.75;2.75;;;;;25.29;49.10;100367.47;5078150;27;45403;-70
2022/08/04 00:43:52;;;;;;;;;2.25;2.25;;;;;25.27;49.12;100364.09;5076628;28;46199;-70
2022/08/04 00:46:35;;;;;;;;;2.00;2.00;;;;;25.22;49.21;100370.81;5076420;27;45560;-70
2022/08/04 00:49:24;;;;;;;;;1.75;1.75;;;;;25.20;49.38;100375.53;5074267;28;45471;-70
2022/08/04 00:52:14;;;;;;;;;3.25;3.25;;;;;25.18;49.42;100382.91;5077337;27;45393;-69
2022/08/04 00:55:03;;;;;;;;;3.00;3.00;;;;;25.16;49.86;100371.47;5077870;27;46522;-70
2022/08/04 00:57:41;;;;;;;;;2.00;2.00;;;;;25.14;49.54;100373.47;5076302;28;45323;-70
2022/08/04 01:00:10;;;;;;;;;2.50;2.50;;;;;25.13;49.63;100366.41;5077266;27;45367;-69
2022/08/04 01:02:38;;;;;;;;;2.50;2.50;;;;;25.12;49.85;100375.50;5076179;27;45603;-70
2022/08/04 01:05:37;;;;;;;;;1.00;1.00;;;;;24.98;49.62;100349.22;5075364;27;45337;-70
2022/08/04 01:08:10;;;;;;;;;2.25;2.25;;;;;25.09;49.58;100365.91;5076305;27;45466;-70
2022/08/04 01:10:48;;;;;;;;;2.75;2.75;;;;;25.12;49.71;100358.53;5077003;27;45282;-70
2022/08/04 01:13:24;;;;;;;;;1.00;1.00;;;;;25.12;49.91;100358.53;5075296;28;45435;-70
2022/08/04 01:16:06;;;;;;;;;1.00;1.00;;;;;25.09;49.86;100356.97;5074154;28;47054;-70
2022/08/04 01:18:46;;;;;;;;;1.00;1.00;;;;;25.15;49.41;100374.34;5065854;27;45273;-70
2022/08/04 01:21:30;;;;;;;;;2.25;2.25;;;;;25.13;49.52;100365.59;5066608;28;45366;-69
2022/08/04 01:24:17;;;;;;;;;0.50;0.50;;;;;25.11;49.50;100368.44;5077425;28;45342;-70
2022/08/04 01:27:08;;;;;;;;;1.75;1.75;;;;;25.09;50.07;100356.97;5059375;27;46697;-70
2022/08/04 01:29:39;;;;;;;;;1.50;1.50;;;;;25.11;50.14;100360.34;5069874;27;45414;-70
2022/08/04 01:32:16;;;;;;;;;1.00;1.00;;;;;25.12;50.35;100363.91;5077477;27;45400;-70
2022/08/04 01:34:50;;;;;;;;;3.00;3.00;;;;;25.07;49.94;100361.69;5076810;27;45414;-69
2022/08/04 01:37:24;;;;;;;;;1.00;1.00;;;;;25.07;50.94;100367.06;5077104;27;45744;-70
2022/08/04 01:40:00;;;;;;;;;1.75;1.75;;;;;24.91;49.91;100341.78;5081344;27;45499;-70
2022/08/04 01:42:30;;;;;;;;;3.00;2.25;;;;;25.05;51.01;100374.47;5080588;27;45411;-69
2022/08/04 01:44:59;;;;;;;;;1.00;1.00;;;;;24.97;51.24;100363.66;5077693;27;46017;-70
2022/08/04 01:47:28;;;;;;;;;2.00;2.00;;;;;24.97;51.64;100367.22;5075782;28;46348;-69
2022/08/04 01:49:59;;;;;;;;;1.75;1.75;;;;;24.88;50.99;100360.94;5077142;27;45524;-70
2022/08/04 01:52:27;;;;;;;;;3.00;3.00;;;;;24.86;51.94;100365.63;5075823;28;45219;-70
2022/08/04 01:54:54;;;;;;;;;2.00;2.00;;;;;24.75;51.42;100347.91;5077395;28;45473;-69
2022/08/04 01:57:22;;;;;;;;;1.00;1.00;;;;;24.75;52.54;100355.16;5076695;27;45335;-69
2022/08/04 01:59:50;;;;;;;;;4.00;4.00;;;;;24.67;52.58;100347.03;5076753;27;45437;-70
2022/08/04 02:02:16;;;;;;;;;3.75;3.75;;;;;24.65;52.45;100348.03;5077024;27;45329;-69
2022/08/04 02:04:42;;;;;;;;;2.00;2.00;;;;;24.62;52.04;100353.72;5077331;27;45258;-70
2022/08/04 02:07:19;;;;;;;;;2.50;2.50;;;;;24.63;52.34;100350.03;5076853;27;45397;-71
2022/08/04 02:09:56;;;;;;;;;1.75;1.75;;;;;24.60;52.39;100347.66;5076911;27;45456;-70
2022/08/04 02:12:38;;;;;;;;;3.00;3.00;;;;;24.56;52.89;100340.06;5075372;28;45453;-70
2022/08/04 02:15:15;;;;;;;;;2.75;2.75;;;;;24.51;52.71;100341.38;5057436;28;45502;-70
2022/08/04 02:18:02;;;;;;;;;2.50;2.50;;;;;24.49;52.83;100342.56;5056760;28;45398;-71
2022/08/04 02:20:35;;;;;;;;;2.00;2.00;;;;;24.43;52.81;100332.44;5056654;28;45450;-71
2022/08/04 02:23:04;;;;;;;;;1.75;1.75;;;;;24.40;52.85;100344.34;5056746;28;45335;-71
2022/08/04 02:25:38;;;;;;;;;3.25;3.25;;;;;24.35;54.09;100350.16;5057041;28;45464;-71
2022/08/04 02:28:38;;;;;;;;;3.00;3.00;;;;;24.27;53.26;100351.97;5056918;28;45662;-71
2022/08/04 02:31:07;;;;;;;;;3.00;3.00;;;;;24.25;54.19;100341.38;5070374;28;45500;-72
2022/08/04 02:33:38;;;;;;;;;3.00;3.00;;;;;24.17;54.10;100326.06;5076531;27;45354;-73
2022/08/04 02:36:07;;;;;;;;;2.50;2.50;;;;;24.14;54.19;100322.81;5076576;27;45471;-69
2022/08/04 02:38:52;;;;;;;;;3.00;3.00;;;;;24.06;54.32;100321.75;5076125;28;45424;-70
2022/08/04 02:41:20;;;;;;;;;3.25;3.25;;;;;23.99;54.33;100317.16;5074988;28;45302;-70
2022/08/04 02:43:48;;;;;;;;;3.75;3.75;;;;;23.96;54.75;100320.97;5076431;27;45325;-72
2022/08/04 02:46:16;;;;;;;;;3.00;3.00;;;;;23.92;54.47;100322.28;5076798;27;45627;-71
2022/08/04 02:48:45;;;;;;;;;5.25;3.25;;;;;23.89;54.64;100330.66;5075697;27;46353;-71
2022/08/04 02:51:12;;;;;;;;;3.75;3.75;;;;;23.87;54.82;100327.28;5076197;27;45283;-71
2022/08/04 02:53:40;;;;;;;;;3.00;3.00;;;;;23.80;54.82;100331.59;5076424;27;45340;-69
2022/08/04 02:56:08;;;;;;;;;2.25;2.25;;;;;23.77;55.17;100330.91;5076622;27;45567;-70
2022/08/04 02:58:35;;;;;;;;;2.50;2.50;;;;;23.75;55.40;100335.59;5075768;27;45535;-70
2022/08/04 03:01:02;;;;;;;;;4.50;4.50;;;;;23.77;54.76;100344.31;5076212;27;45337;-70
2022/08/04 03:03:47;;;;;;;;;3.75;3.75;;;;;23.76;55.13;100353.38;5076132;27;45391;-69
2022/08/04 03:06:47;;;;;;;;;3.00;3.00;;;;;23.74;55.23;100354.53;5059375;28;45543;-70
2022/08/04 03:09:31;;;;;;;;;3.50;3.50;;;;;23.70;55.29;100359.38;5065938;28;46238;-70
2022/08/04 03:12:05;;;;;;;;;2.75;2.75;;;;;23.71;55.27;100355.69;5056487;28;45330;-70
2022/08/04 03:14:55;;;;;;;;;3.00;3.00;;;;;23.73;55.05;100352.81;5058323;28;45344;-71
2022/08/04 03:17:47;;;;;;;;;3.00;3.00;;;;;23.67;55.16;100340.88;5058729;28;45436;-70
2022/08/04 03:20:21;;;;;;;;;2.00;2.00;;;;;23.64;55.45;100344.69;5068652;28;46705;-70
2022/08/04 03:23:13;;;;;;;;;0.00;0.00;;;;;23.64;55.42;100355.44;5074246;27;45369;-71
2022/08/04 03:26:15;;;;;;;;;4.00;4.00;;;;;23.62;55.37;100356.59;5048627;28;45580;-70
2022/08/04 03:29:02;;;;;;;;;2.50;2.50;;;;;23.59;55.13;100351.53;5064737;28;45878;-71
2022/08/04 03:31:56;;;;;;;;;3.00;3.00;;;;;23.56;55.29;100344.63;5073122;28;45868;-70
2022/08/04 03:34:44;;;;;;;;;2.00;2.00;;;;;23.59;55.08;100343.50;5063552;28;45236;-69
2022/08/04 03:37:36;;;;;;;;;2.25;2.25;;;;;23.57;55.46;100350.84;5075481;28;45377;-70
2022/08/04 03:40:04;;;;;;;;;3.00;3.00;;;;;23.54;55.45;100340.41;5055586;28;45366;-70
2022/08/04 03:43:07;;;;;;;;;4.00;4.00;;;;;23.52;55.89;100334.34;5055238;28;46576;-70
2022/08/04 03:45:56;;;;;;;;;3.00;3.00;;;;;23.50;55.72;100334.50;5062895;28;45293;-70
2022/08/04 03:48:53;;;;;;;;;3.00;3.00;;;;;23.48;56.17;100339.16;5066786;28;45283;-69
2022/08/04 03:55:13;;;;;;;;;3.00;3.00;;;;;23.45;55.79;100351.06;5015495;28;45499;-71
2022/08/04 03:58:00;;;;;;;;;2.50;2.50;;;;;23.44;56.04;100343.16;5013217;28;45511;-71
2022/08/04 04:00:33;;;;;;;;;4.75;4.75;;;;;23.43;55.41;100334.28;5049656;28;45553;-70
2022/08/04 04:03:21;;;;;;;;;1.00;1.00;;;;;23.53;55.34;100338.72;5066904;28;45267;-71
2022/08/04 04:06:02;;;;;;;;;3.25;3.25;;;;;23.56;55.84;100331.19;5066918;28;46316;-70
2022/08/04 04:09:15;;;;;;;;;3.00;3.00;;;;;23.56;55.78;100322.31;5066295;28;45369;-72
2022/08/04 04:11:58;;;;;;;;;2.50;2.50;;;;;23.59;55.69;100308.59;5020017;28;45523;-70
2022/08/04 04:15:07;;;;;;;;;3.25;3.25;;;;;23.59;55.85;100306.72;5069314;28;45300;-70
2022/08/04 04:17:45;;;;;;;;;4.75;4.75;;;;;23.60;55.21;100312.97;5052853;28;46452;-71
2022/08/04 04:20:38;;;;;;;;;3.00;3.00;;;;;23.61;55.25;100333.44;5070342;28;45502;-70
2022/08/04 04:23:26;;;;;;;;;4.25;4.25;;;;;23.62;55.43;100352.06;5054478;28;45263;-70
2022/08/04 04:25:57;;;;;;;;;3.00;3.00;;;;;23.64;55.48;100365.34;5048854;28;45465;-71
2022/08/04 04:28:29;;;;;;;;;3.50;3.50;;;;;23.58;55.25;100355.22;5067239;28;45428;-70
2022/08/04 04:31:09;;;;;;;;;3.00;3.00;;;;;23.56;55.98;100373.31;5064255;28;45381;-70
2022/08/04 04:34:16;;;;;;;;;3.00;3.00;;;;;23.55;55.63;100374.31;5073867;28;45227;-69
2022/08/04 04:37:15;;;;;;;;;4.25;4.25;;;;;23.53;55.88;100374.44;5056559;27;45566;-69
2022/08/04 04:39:52;;;;;;;;;3.25;3.25;;;;;23.49;55.64;100363.19;5070829;28;46829;-70
2022/08/04 04:42:31;;;;;;;;;3.25;3.25;;;;;23.45;55.60;100361.81;5074691;28;45492;-69
2022/08/04 04:45:22;;;;;;;;;3.00;3.00;;;;;23.43;55.74;100362.94;5074862;28;45164;-70
2022/08/04 04:48:05;;;;;;;;;3.50;3.50;;;;;23.42;56.18;100375.53;5073275;28;45604;-69
2022/08/04 04:50:37;;;;;;;;;2.25;2.25;;;;;23.38;55.84;100376.81;5057343;28;45456;-69
2022/08/04 04:53:11;;;;;;;;;3.50;3.50;;;;;23.37;55.77;100396.59;5053893;28;45440;-71
2022/08/04 04:56:07;;;;;;;;;4.25;4.25;;;;;23.40;55.76;100425.84;5066947;28;45320;-69
2022/08/04 04:58:37;;;;;;;;;4.25;4.25;;;;;23.26;61.36;100412.88;5045369;28;45548;-70
2022/08/04 05:01:33;;;;;;;;;6.00;6.00;;;;;22.77;59.67;100400.50;5076422;28;46651;-69
2022/08/04 05:04:28;;;;;;;;;2.00;2.00;;;;;22.44;60.05;100408.03;5069637;28;45320;-68
2022/08/04 05:06:56;;;;;;;;;4.50;4.50;;;;;22.28;60.97;100417.50;5077125;27;45356;-69
2022/08/04 05:09:30;;;;;;;;;5.25;4.00;;;;;22.22;61.19;100412.66;5071400;28;45755;-68
2022/08/04 05:12:14;;;;;;;;;3.50;3.50;;;;;22.22;60.70;100396.59;5076556;28;46382;-70
2022/08/04 05:14:49;;;;;;;;;4.25;4.25;;;;;22.26;61.14;100397.19;5074642;27;45740;-68
2022/08/04 05:17:20;;;;;;;;;4.00;4.00;;;;;22.25;60.59;100388.28;5077053;28;45497;-69
2022/08/04 05:20:05;;;;;;;;;5.25;5.25;;;;;22.28;61.22;100401.41;5077284;28;45388;-69
2022/08/04 05:22:41;;;;;;;;;5.00;5.00;;;;;22.29;61.37;100412.97;5075554;28;45312;-69
2022/08/04 05:25:15;;;;;;;;;6.00;6.00;;;;;22.27;61.92;100399.72;5077523;27;45309;-69
2022/08/04 05:27:49;;;;;;;;;3.25;3.25;;;;;22.24;60.95;100391.13;5076790;27;45411;-69
2022/08/04 05:30:17;;;;;;;;;5.50;5.50;;;;;22.27;60.71;100415.81;5077108;28;45499;-68
2022/08/04 05:33:03;;;;;;;;;4.00;4.00;;;;;22.20;60.72;100417.31;5076112;28;45788;-69
2022/08/04 05:35:59;;;;;;;;;4.25;4.25;;;;;22.18;60.76;100424.66;5060736;27;45315;-69
2022/08/04 05:38:35;;;;;;;;;3.00;3.00;;;;;22.11;60.99;100419.03;5065150;28;45361;-70
2022/08/04 05:41:01;;;;;;;;;4.00;4.00;;;;;22.21;60.89;100436.94;5065495;28;45454;-70
2022/08/04 05:43:27;;;;;;;;;5.75;5.75;;;;;22.19;60.55;100434.38;5078124;27;45385;-70
2022/08/04 05:45:56;;;;;;;;;3.50;3.50;;;;;22.24;60.18;100426.78;5073812;28;45547;-71
2022/08/04 05:48:23;;;;;;;;;5.00;5.00;;;;;22.25;60.18;100428.47;5075525;27;45488;-69
2022/08/04 05:50:49;;;;;;;;;3.75;3.75;;;;;22.28;60.17;100420.16;5057272;28;45480;-69
2022/08/04 05:53:16;;;;;;;;;6.00;6.00;;;;;22.30;60.14;100415.50;5057178;28;46158;-69
2022/08/04 05:55:43;;;;;;;;;4.00;4.00;;;;;22.32;59.17;100413.53;5071958;27;45384;-68
2022/08/04 05:58:09;;;;;;;;;6.50;6.50;;;;;22.43;59.40;100425.09;5074443;27;45242;-69
2022/08/04 06:00:37;;;;;;;;;2.25;2.25;;;;;22.54;58.86;100421.41;5077752;27;45372;-70
2022/08/04 06:03:04;;;;;;;;;6.25;6.00;;;;;22.70;58.04;100415.47;5078490;27;45405;-69
2022/08/04 06:05:31;;;;;;;;;4.25;4.25;;;;;22.86;57.62;100417.56;5083332;27;45358;-71
2022/08/04 06:07:56;;;;;;;;;10.00;10.00;;;;;23.00;57.87;100408.16;5084282;27;45317;-71
2022/08/04 06:10:24;;;;;;;;;4.00;4.00;;;;;23.23;56.92;100418.50;5073801;27;45632;-74
2022/08/04 06:12:57;;;;;;;;;4.25;4.25;;;;;23.42;56.31;100418.47;5061549;28;45547;-73
2022/08/04 06:15:25;;;;;;;;;5.00;5.00;;;;;23.53;55.81;100408.53;5065805;28;45361;-74
2022/08/04 06:18:00;;;;;;;;;4.50;4.50;;;;;23.67;55.49;100410.69;5077252;27;45368;-71
2022/08/04 06:20:35;;;;;;;;;5.25;5.25;;;;;23.76;55.29;100423.19;5076897;27;45324;-71
2022/08/04 06:23:04;;;;;;;;;3.00;3.00;;;;;23.77;54.73;100424.88;5068868;28;45624;-75
2022/08/04 06:25:33;;;;;;;;;4.25;4.25;;;;;23.77;54.78;100430.25;5071512;27;45247;-74
2022/08/04 06:28:04;;;;;;;;;4.00;4.00;;;;;23.74;54.63;100421.66;5067462;28;45471;-79
2022/08/04 06:30:31;;;;;;;;;4.50;3.50;;;;;23.77;54.43;100419.53;5067604;28;45161;-75
2022/08/04 06:32:59;;;;;;;;;3.50;3.50;;;;;23.79;54.54;100411.28;5058612;28;46082;-75
2022/08/04 06:35:27;;;;;;;;;3.50;3.50;;;;;23.78;54.43;100415.84;5064447;28;45474;-76
2022/08/04 06:37:55;;;;;;;;;5.25;5.25;;;;;23.74;54.19;100414.44;5076486;27;45252;-76
2022/08/04 06:40:22;;;;;;;;;4.75;4.75;;;;;23.82;54.00;100426.28;5076986;28;45352;-75
2022/08/04 06:42:49;;;;;;;;;4.00;4.00;;;;;23.82;54.08;100413.69;5085653;27;46746;-75
2022/08/04 06:45:15;;;;;;;;;4.25;4.25;;;;;23.92;53.80;100424.34;5065000;28;45460;-76
2022/08/04 06:47:43;;;;;;;;;3.50;3.50;;;;;24.00;53.57;100426.31;5061351;28;45478;-77
2022/08/04 06:50:10;;;;;;;;;4.25;4.25;;;;;24.16;53.89;100439.03;5069841;27;45678;-80
2022/08/04 06:52:37;;;;;;;;;4.00;4.00;;;;;24.27;53.47;100443.34;5076003;27;46126;-77
2022/08/04 06:55:04;;;;;;;;;4.50;4.50;;;;;24.26;53.23;100445.19;5077383;28;45412;-75
2022/08/04 06:57:32;;;;;;;;;6.00;6.00;;;;;24.28;53.43;100445.03;5073822;28;45489;-75
2022/08/04 07:00:09;;;;;;;;;4.50;4.50;;;;;24.36;53.10;100445.94;5076292;28;45490;-78
2022/08/04 07:02:42;;;;;;;;;4.00;4.00;;;;;24.47;52.33;100446.72;5076467;27;45554;-75
2022/08/04 07:05:09;;;;;;;;;5.75;5.75;;;;;24.59;52.23;100458.91;5076180;27;45310;-75
2022/08/04 07:07:35;;;;;;;;;4.75;4.75;;;;;24.63;51.95;100452.22;5075925;27;45250;-72
2022/08/04 07:10:01;;;;;;;;;3.00;3.00;;;;;24.74;51.55;100453.00;5076204;27;45346;-73
2022/08/04 07:12:27;;;;;;;;;3.00;3.00;;;;;24.80;51.45;100455.88;5073786;27;45412;-73
2022/08/04 07:14:54;;;;;;;;;3.00;3.00;;;;;24.99;50.84;100450.44;5058307;28;45239;-73
2022/08/04 07:17:20;;;;;;;;;3.00;3.00;;;;;25.11;50.55;100441.09;5056335;28;45428;-75
2022/08/04 07:19:46;;;;;;;;;3.75;3.75;;;;;25.41;50.43;100457.69;5059036;28;45585;-77
2022/08/04 07:22:12;;;;;;;;;2.50;2.50;;;;;25.66;49.69;100447.06;5075785;28;46186;-78
2022/08/04 07:24:40;;;;;;;;;3.50;3.50;;;;;25.93;48.71;100464.78;5076908;27;45475;-75
2022/08/04 07:27:06;;;;;;;;;3.50;3.50;;;;;26.00;49.36;100453.38;5077200;28;45247;-78
2022/08/04 07:29:34;;;;;;;;;3.00;3.00;;;;;26.16;48.37;100466.91;5075953;28;45242;-82
2022/08/04 07:32:00;;;;;;;;;3.00;3.00;;;;;26.30;48.33;100473.47;5075284;28;45458;-77
2022/08/04 07:34:28;;;;;;;;;3.00;3.00;;;;;26.27;48.23;100464.88;5070910;27;45513;-79
2022/08/04 07:36:56;;;;;;;;;3.25;3.25;;;;;26.20;48.08;100470.94;5057141;28;45209;-74
2022/08/04 07:39:25;;;;;;;;;5.00;4.00;;;;;26.30;48.39;100473.47;5059815;28;45172;-76
2022/08/04 07:41:52;;;;;;;;;4.50;4.50;;;;;26.39;47.91;100472.44;5059109;28;45643;-78
2022/08/04 07:44:17;;;;;;;;;4.00;4.00;;;;;26.51;48.03;100472.13;5077274;28;45442;-77
2022/08/04 07:46:44;;;;;;;;;4.00;4.00;;;;;26.66;47.88;100475.84;5082274;28;45347;-77
2022/08/04 07:49:13;;;;;;;;;4.25;4.25;;;;;26.77;47.54;100493.50;5075683;27;45201;-80
2022/08/04 07:51:40;;;;;;;;;4.25;4.25;;;;;26.65;47.43;100462.50;5073969;27;45899;-75
2022/08/04 07:54:08;;;;;;;;;4.25;4.25;;;;;26.76;47.24;100477.50;5074604;27;45519;-75
2022/08/04 07:56:39;;;;;;;;;3.00;3.00;;;;;26.60;47.53;100479.22;5074225;27;45443;-76
2022/08/04 07:59:06;;;;;;;;;4.25;4.25;;;;;26.53;47.71;100484.44;5075237;27;45349;-75
2022/08/04 08:01:33;;;;;;;;;3.75;3.75;;;;;26.51;48.39;100499.94;5075238;28;45383;-75
2022/08/04 08:03:59;;;;;;;;;6.00;5.50;;;;;26.39;49.00;100496.72;5075544;28;45327;-74
2022/08/04 08:06:25;;;;;;;;;8.00;8.00;;;;;26.30;48.66;100497.72;5074202;28;45432;-75
2022/08/04 08:08:50;;;;;;;;;2.00;2.00;;;;;26.09;48.70;100492.81;5076105;27;45528;-76
2022/08/04 08:11:16;;;;;;;;;5.75;5.75;;;;;26.02;49.17;100519.56;5075934;27;45679;-75
2022/08/04 08:13:43;;;;;;;;;3.00;3.00;;;;;25.77;49.34;100510.56;5075999;28;45471;-76
2022/08/04 08:16:10;;;;;;;;;5.25;4.00;;;;;25.61;49.82;100495.19;5075826;28;45432;-75
2022/08/04 08:18:35;;;;;;;;;2.00;2.00;;;;;25.55;50.56;100502.06;5076047;28;45537;-75
2022/08/04 08:21:01;;;;;;;;;2.75;2.75;;;;;25.45;50.32;100499.50;5074683;27;45337;-74
2022/08/04 08:23:29;;;;;;;;;3.25;3.25;;;;;25.42;50.20;100528.56;5073823;28;45493;-75
2022/08/04 08:25:56;;;;;;;;;3.75;3.75;;;;;25.31;50.51;100525.16;5075396;28;45666;-76
2022/08/04 08:28:21;;;;;;;;;3.00;3.00;;;;;25.28;51.85;100530.84;5075397;28;45531;-76
2022/08/04 08:30:47;;;;;;;;;3.25;2.25;;;;;25.18;51.76;100540.88;5074758;28;46645;-76
2022/08/04 08:33:14;;;;;;;;;4.00;4.00;;;;;24.97;52.36;100528.66;5074538;28;45325;-75
2022/08/04 08:36:20;;;;;;;;;1.75;1.75;;;;;24.89;52.38;100537.47;5077527;28;45429;-75
2022/08/04 08:39:01;;;;;;;;;2.00;2.00;;;;;24.77;52.36;100517.22;5016459;28;45384;-76
2022/08/04 08:41:51;;;;;;;;;3.00;3.00;;;;;24.76;53.00;100510.16;5074830;27;45667;-75
2022/08/04 08:44:55;;;;;;;;;3.00;3.00;;;;;24.80;52.74;100520.44;5080889;27;45432;-76
2022/08/04 08:47:45;;;;;;;;;2.25;2.25;;;;;24.91;53.08;100530.09;5096495;27;45307;-76
2022/08/04 08:50:42;;;;;;;;;4.50;4.50;;;;;24.99;52.69;100529.31;5110239;27;45243;-75
2022/08/04 08:53:41;;;;;;;;;6.25;5.00;;;;;24.88;53.04;100511.59;5026505;27;46433;-77
2022/08/04 08:56:32;;;;;;;;;3.50;3.50;;;;;25.13;52.30;100527.06;5093786;27;45505;-76
2022/08/04 08:59:07;;;;;;;;;3.75;3.75;;;;;25.18;52.42;100524.72;5068891;27;45360;-76
2022/08/04 09:01:47;;;;;;;;;4.00;4.00;;;;;25.22;52.44;100524.25;5087995;27;45353;-76
2022/08/04 09:04:21;;;;;;;;;3.75;3.75;;;;;25.33;52.41;100512.38;5093535;27;45408;-75
2022/08/04 09:06:53;;;;;;;;;4.00;4.00;;;;;25.46;51.86;100509.28;5065009;27;45343;-75
2022/08/04 09:09:49;;;;;;;;;2.25;2.25;;;;;25.56;52.17;100513.69;5087928;27;45588;-76
2022/08/04 09:12:32;;;;;;;;;3.25;3.25;;;;;25.58;52.04;100528.66;5093902;27;45341;-75
2022/08/04 09:15:02;;;;;;;;;4.25;4.25;;;;;25.58;52.22;100522.44;5067803;27;46077;-76
2022/08/04 09:17:44;;;;;;;;;0.75;0.75;;;;;25.57;52.10;100523.47;5087503;27;45347;-75
2022/08/04 09:20:21;;;;;;;;;3.00;3.00;;;;;25.66;51.94;100517.94;5093142;27;45537;-75
2022/08/04 09:23:23;;;;;;;;;2.75;2.75;;;;;25.86;51.55;100523.03;5065070;27;45363;-75
2022/08/04 09:26:07;;;;;;;;;3.00;3.00;;;;;26.10;51.04;100530.34;5085078;27;46215;-77
2022/08/04 09:29:10;;;;;;;;;3.00;3.00;;;;;26.29;50.70;100541.88;5093924;27;45234;-76
2022/08/04 09:32:01;;;;;;;;;4.75;4.75;;;;;26.57;49.98;100548.81;5086501;27;45361;-76
2022/08/04 09:34:40;;;;;;;;;1.00;1.00;;;;;26.76;50.15;100547.66;5081027;27;45449;-75
2022/08/04 09:37:19;;;;;;;;;3.50;3.50;;;;;26.96;49.43;100554.41;5082830;27;46073;-76
2022/08/04 09:40:22;;;;;;;;;1.75;1.75;;;;;27.09;48.81;100553.91;5078134;27;45479;-76
2022/08/04 09:43:09;;;;;;;;;2.00;2.00;;;;;27.12;48.72;100545.47;5068578;27;45483;-77
2022/08/04 09:45:47;;;;;;;;;1.00;1.00;;;;;27.14;48.64;100547.16;5088255;27;45496;-74
2022/08/04 09:48:33;;;;;;;;;3.00;3.00;;;;;27.19;48.38;100551.00;5094873;27;46509;-78
2022/08/04 09:50:58;;;;;;;;;2.00;2.00;;;;;27.37;48.37;100553.50;5086774;27;45516;-77
2022/08/04 09:53:27;;;;;;;;;3.00;3.00;;;;;27.61;48.06;100559.88;5090395;27;45410;-77
2022/08/04 09:56:08;;;;;;;;;2.25;2.25;;;;;27.66;47.66;100551.25;5092183;27;45264;-76
2022/08/04 09:58:49;;;;;;;;;2.00;2.00;;;;;27.73;47.87;100557.63;5078571;27;46494;-74
2022/08/04 10:01:19;;;;;;;;;2.00;2.00;;;;;27.85;46.70;100541.84;5077094;27;45463;-72
2022/08/04 10:03:49;;;;;;;;;2.50;2.50;;;;;27.94;47.14;100551.59;5077792;27;45233;-76
2022/08/04 10:06:36;;;;;;;;;3.00;3.00;;;;;27.98;46.84;100546.72;5077861;27;45404;-77
2022/08/04 10:09:28;;;;;;;;;4.00;4.00;;;;;28.11;47.18;100543.44;5077415;27;46417;-76
2022/08/04 10:11:56;;;;;;;;;3.25;2.00;;;;;28.11;46.44;100541.56;5076077;28;45242;-76
2022/08/04 10:14:31;;;;;;;;;3.00;3.00;;;;;28.14;46.78;100549.34;5075803;27;45464;-78
2022/08/04 10:17:26;;;;;;;;;3.00;3.00;;;;;28.21;46.61;100543.22;5077389;28;45318;-77
2022/08/04 10:20:21;;;;;;;;;2.75;2.75;;;;;28.14;46.18;100543.09;5075413;28;46386;-77
2022/08/04 10:23:14;;;;;;;;;2.00;2.00;;;;;28.02;46.52;100536.34;5076863;27;45301;-77
2022/08/04 10:25:51;;;;;;;;;1.50;1.50;;;;;27.85;46.85;100537.31;5077156;28;45439;-77
2022/08/04 10:28:21;;;;;;;;;1.50;1.50;;;;;27.71;47.62;100546.16;5077292;27;45330;-77
2022/08/04 10:30:55;;;;;;;;;1.00;1.00;;;;;27.56;47.25;100536.06;5077310;28;45379;-76
2022/08/04 10:33:26;;;;;;;;;1.50;1.50;;;;;27.45;48.17;100538.28;5077266;28;45314;-78
2022/08/04 10:36:00;;;;;;;;;1.00;1.00;;;;;27.44;47.92;100542.84;5078250;27;45377;-77
2022/08/04 10:38:30;;;;;;;;;2.00;2.00;;;;;27.46;48.27;100546.19;5078114;27;45346;-77
2022/08/04 10:41:19;;;;;;;;;1.00;1.00;;;;;27.53;48.22;100549.91;5076876;27;47208;-77
2022/08/04 10:43:50;;;;;;;;;2.25;2.25;;;;;27.55;47.89;100549.75;5077003;28;45325;-78
2022/08/04 10:46:21;;;;;;;;;1.75;1.75;;;;;27.56;47.97;100549.56;5077400;27;45327;-78
2022/08/04 10:49:13;;;;;;;;;1.00;1.00;;;;;27.49;48.45;100535.06;5077466;27;45214;-77
2022/08/04 10:52:26;;;;;;;;;1.00;1.00;;;;;27.34;48.56;100521.44;5075286;27;46142;-77
2022/08/04 10:55:02;;;;;;;;;0.00;0.00;;;;;27.08;49.02;100522.53;5014423;28;45373;-77
2022/08/04 10:57:32;;;;;;;;;2.00;2.00;;;;;26.94;49.49;100526.75;5071434;28;45537;-78
2022/08/04 10:59:57;;;;;;;;;2.75;2.75;;;;;26.93;49.46;100529.63;5077632;27;45309;-79
2022/08/04 11:02:41;;;;;;;;;1.00;1.00;;;;;26.94;49.63;100520.50;5076739;28;46297;-78
2022/08/04 11:05:38;;;;;;;;;0.25;0.25;;;;;27.00;49.42;100484.72;5077115;28;45374;-79
2022/08/04 11:08:10;;;;;;;;;2.00;2.00;;;;;27.12;49.38;100515.78;5076968;27;45346;-77
2022/08/04 11:10:44;;;;;;;;;0.00;0.00;;;;;27.17;49.64;100528.75;5076231;28;45481;-77
2022/08/04 11:13:14;;;;;;;;;1.00;1.00;;;;;27.11;49.61;100530.28;5076945;27;46085;-74
2022/08/04 11:15:46;;;;;;;;;0.75;0.75;;;;;27.00;49.48;100519.81;5076785;27;45266;-77
2022/08/04 11:18:44;;;;;;;;;0.75;0.75;;;;;27.14;49.50;100525.56;5076892;28;45406;-77
2022/08/04 11:21:27;;;;;;;;;3.00;3.00;;;;;27.20;48.97;100535.66;5059378;28;45567;-76
2022/08/04 11:24:01;;;;;;;;;1.00;1.00;;;;;27.30;49.09;100533.59;5077265;27;46468;-78
2022/08/04 11:26:44;;;;;;;;;1.00;1.00;;;;;27.31;48.71;100521.78;5080057;27;45378;-75
2022/08/04 11:29:27;;;;;;;;;1.75;1.75;;;;;27.35;48.71;100522.28;5081614;27;45341;-76
2022/08/04 11:31:58;;;;;;;;;1.00;1.00;;;;;27.41;48.22;100522.44;5086046;27;45391;-74
2022/08/04 11:34:27;;;;;;;;;2.00;2.00;;;;;27.45;48.36;100530.19;5080659;27;45401;-76
2022/08/04 11:37:17;;;;;;;;;1.00;1.00;;;;;27.42;48.08;100528.66;5078687;27;45184;-75
2022/08/04 11:39:59;;;;;;;;;2.00;2.00;;;;;27.55;48.76;100538.97;5076751;27;45430;-77
2022/08/04 11:42:56;;;;;;;;;1.00;1.00;;;;;27.77;47.78;100542.75;5075425;28;45509;-74
2022/08/04 11:45:32;;;;;;;;;3.00;3.00;;;;;27.77;47.31;100531.09;5053887;27;45473;-75
2022/08/04 11:48:22;;;;;;;;;2.25;2.25;;;;;27.89;47.76;100531.56;5076542;27;45336;-74
2022/08/04 11:50:52;;;;;;;;;2.00;2.00;;;;;27.98;47.23;100539.41;5075526;27;45464;-75
2022/08/04 11:53:22;;;;;;;;;1.00;1.00;;;;;28.07;47.13;100540.22;5075742;27;45393;-74
2022/08/04 11:55:57;;;;;;;;;2.00;2.00;;;;;28.22;46.49;100542.19;5076134;28;45801;-75
2022/08/04 11:58:22;;;;;;;;;2.25;2.25;;;;;28.34;46.23;100539.94;5076488;28;45388;-76
2022/08/04 12:01:18;;;;;;;;;4.00;4.00;;;;;28.43;45.92;100547.78;5075517;28;45488;-75
2022/08/04 12:04:02;;;;;;;;;3.00;3.00;;;;;28.20;46.51;100538.81;5077171;28;45343;-76
2022/08/04 12:06:36;;;;;;;;;2.50;2.50;;;;;28.23;46.24;100543.88;5077113;27;46518;-74
2022/08/04 12:09:31;;;;;;;;;3.75;3.75;;;;;28.48;45.89;100546.41;5077665;28;45524;-74
2022/08/04 12:12:21;;;;;;;;;5.00;5.00;;;;;28.66;45.88;100540.69;5079579;27;45298;-74